Time;durP1;ratioP1;P1;durP2;ratioP2;P2;SDS_P1;SDS_P2;PMS_P1;PMS_P2;Temp;Humidity;BMP_temperature;BMP_pressure;BME280_temperature;BME280_humidity;BME280_pressure;Samples;Min_cycle;Max_cycle;Signal;HPM_P1;HPM_P2
2023/05/01 00:00:43;;;;;;;13.40;7.22;;;;;;;;;;4988915;28;20100;-79
2023/05/01 00:03:09;;;;;;;9.52;7.25;;;;;;;;;;5006402;28;20042;-79
2023/05/01 00:05:36;;;;;;;10.68;7.55;;;;;;;;;;5008445;28;20111;-78
2023/05/01 00:08:02;;;;;;;9.38;7.03;;;;;;;;;;4988117;28;20088;-78
2023/05/01 00:10:28;;;;;;;11.80;7.72;;;;;;;;;;4988789;28;20095;-78
2023/05/01 00:12:54;;;;;;;9.70;7.10;;;;;;;;;;4993818;28;20041;-78
2023/05/01 00:15:20;;;;;;;12.55;7.43;;;;;;;;;;5010099;28;20478;-78
2023/05/01 00:17:46;;;;;;;9.98;7.20;;;;;;;;;;5006197;28;20050;-79
2023/05/01 00:20:13;;;;;;;12.63;6.95;;;;;;;;;;5011589;28;20046;-79
2023/05/01 00:22:39;;;;;;;10.25;6.38;;;;;;;;;;5011148;28;20100;-78
2023/05/01 00:25:05;;;;;;;10.75;7.38;;;;;;;;;;4991585;28;20413;-78
2023/05/01 00:27:31;;;;;;;9.93;7.20;;;;;;;;;;5005394;28;20478;-78
2023/05/01 00:29:57;;;;;;;8.68;6.28;;;;;;;;;;5006849;28;20042;-78
2023/05/01 00:32:23;;;;;;;9.27;7.07;;;;;;;;;;4991567;28;20049;-79
2023/05/01 00:34:50;;;;;;;10.88;7.45;;;;;;;;;;5012206;28;20045;-79
2023/05/01 00:37:16;;;;;;;10.27;7.20;;;;;;;;;;5009817;28;20049;-78
2023/05/01 00:39:42;;;;;;;11.95;6.85;;;;;;;;;;4993003;28;20053;-79
2023/05/01 00:42:08;;;;;;;11.18;7.20;;;;;;;;;;5009158;28;20045;-78
2023/05/01 00:44:34;;;;;;;13.13;6.68;;;;;;;;;;4990343;28;20038;-78
2023/05/01 00:47:01;;;;;;;10.27;6.88;;;;;;;;;;4987832;28;20446;-78
2023/05/01 00:49:27;;;;;;;11.45;7.18;;;;;;;;;;5005225;28;20052;-78
2023/05/01 00:51:53;;;;;;;9.00;7.20;;;;;;;;;;4990585;28;20041;-78
2023/05/01 00:54:20;;;;;;;10.73;7.38;;;;;;;;;;5005557;28;20042;-79
2023/05/01 00:56:50;;;;;;;11.48;7.10;;;;;;;;;;4982957;28;20061;-79
2023/05/01 00:59:17;;;;;;;10.82;6.82;;;;;;;;;;4970805;28;20061;-79
2023/05/01 01:01:43;;;;;;;9.75;6.60;;;;;;;;;;4986723;28;20039;-78
2023/05/01 01:04:09;;;;;;;9.70;7.30;;;;;;;;;;4966646;28;20053;-78
2023/05/01 01:06:41;;;;;;;9.52;6.40;;;;;;;;;;4960695;28;20050;-78
2023/05/01 01:09:13;;;;;;;8.95;6.22;;;;;;;;;;4984414;28;20511;-78
2023/05/01 01:11:42;;;;;;;10.00;7.32;;;;;;;;;;4969792;28;20133;-78
2023/05/01 01:14:15;;;;;;;9.80;6.60;;;;;;;;;;4989783;28;20055;-78
2023/05/01 01:16:54;;;;;;;9.32;6.47;;;;;;;;;;4971521;28;20047;-76
2023/05/01 01:19:21;;;;;;;9.23;6.80;;;;;;;;;;4972037;28;20050;-76
2023/05/01 01:21:49;;;;;;;8.30;5.90;;;;;;;;;;4967191;28;20085;-76
2023/05/01 01:24:34;;;;;;;9.68;6.82;;;;;;;;;;4984681;28;20509;-76
2023/05/01 01:27:06;;;;;;;9.50;6.22;;;;;;;;;;4970518;28;20089;-76
2023/05/01 01:29:40;;;;;;;8.38;6.20;;;;;;;;;;4968608;28;20038;-76
2023/05/01 01:32:19;;;;;;;10.02;6.35;;;;;;;;;;4972459;28;20043;-76
2023/05/01 01:34:50;;;;;;;7.63;6.00;;;;;;;;;;4969622;28;20054;-76
2023/05/01 01:37:22;;;;;;;7.53;6.20;;;;;;;;;;4970698;28;20045;-76
2023/05/01 01:40:06;;;;;;;8.80;6.13;;;;;;;;;;4983943;28;20054;-76
2023/05/01 01:42:46;;;;;;;7.82;6.35;;;;;;;;;;4993700;28;20112;-76
2023/05/01 01:45:18;;;;;;;10.35;6.57;;;;;;;;;;4971351;28;20042;-76
2023/05/01 01:47:44;;;;;;;9.18;6.03;;;;;;;;;;4989899;28;20050;-76
2023/05/01 01:50:11;;;;;;;8.20;6.00;;;;;;;;;;4984467;28;20079;-76
2023/05/01 01:52:38;;;;;;;7.32;6.15;;;;;;;;;;4992612;28;20209;-76
2023/05/01 01:55:12;;;;;;;9.27;6.50;;;;;;;;;;4969648;28;20054;-76
2023/05/01 01:57:39;;;;;;;9.80;6.13;;;;;;;;;;4991136;28;20058;-76
2023/05/01 02:00:07;;;;;;;10.57;6.28;;;;;;;;;;5010406;28;20041;-76
2023/05/01 02:02:36;;;;;;;8.93;6.57;;;;;;;;;;5005001;28;20054;-76
2023/05/01 02:05:03;;;;;;;8.65;5.88;;;;;;;;;;5005902;28;20085;-76
2023/05/01 02:07:30;;;;;;;10.90;6.15;;;;;;;;;;5009050;28;20409;-76
2023/05/01 02:09:57;;;;;;;9.65;6.15;;;;;;;;;;5000347;28;20381;-76
2023/05/01 02:12:25;;;;;;;8.48;6.60;;;;;;;;;;5008260;28;20046;-76
2023/05/01 02:14:53;;;;;;;9.70;6.20;;;;;;;;;;5006987;28;20508;-76
2023/05/01 02:17:19;;;;;;;11.10;6.05;;;;;;;;;;4988216;28;20486;-76
2023/05/01 02:19:46;;;;;;;9.27;6.32;;;;;;;;;;5002531;28;20046;-75
2023/05/01 02:22:13;;;;;;;9.18;6.57;;;;;;;;;;4993076;28;20069;-76
2023/05/01 02:24:41;;;;;;;7.40;6.18;;;;;;;;;;5012952;28;20037;-76
2023/05/01 02:27:10;;;;;;;6.55;5.72;;;;;;;;;;4994406;28;20096;-76
2023/05/01 02:29:36;;;;;;;8.75;6.20;;;;;;;;;;5010010;28;20048;-76
2023/05/01 02:32:02;;;;;;;8.55;5.90;;;;;;;;;;4992975;28;20124;-76
2023/05/01 02:34:28;;;;;;;8.55;6.05;;;;;;;;;;4993244;28;20462;-76
2023/05/01 02:36:54;;;;;;;7.63;5.95;;;;;;;;;;4992832;28;20069;-76
2023/05/01 02:39:21;;;;;;;9.13;5.97;;;;;;;;;;4991638;28;20053;-76
2023/05/01 02:41:48;;;;;;;9.10;6.05;;;;;;;;;;5012091;28;20563;-76
2023/05/01 02:44:15;;;;;;;9.23;6.65;;;;;;;;;;5010146;28;20097;-76
2023/05/01 02:46:43;;;;;;;10.73;6.28;;;;;;;;;;4992343;28;20046;-76
2023/05/01 02:49:09;;;;;;;8.45;6.43;;;;;;;;;;4985877;28;20053;-76
2023/05/01 02:51:36;;;;;;;8.60;6.28;;;;;;;;;;4982180;28;20037;-76
2023/05/01 02:54:02;;;;;;;8.45;6.00;;;;;;;;;;4991738;28;20111;-76
2023/05/01 02:56:28;;;;;;;7.75;6.28;;;;;;;;;;4982233;28;20112;-76
2023/05/01 02:58:55;;;;;;;8.40;6.32;;;;;;;;;;4988356;28;20054;-76
2023/05/01 03:01:21;;;;;;;10.55;6.55;;;;;;;;;;4983783;28;20042;-76
2023/05/01 03:03:47;;;;;;;8.15;6.22;;;;;;;;;;4973584;28;20054;-78
2023/05/01 03:06:13;;;;;;;10.73;6.45;;;;;;;;;;4969114;28;20046;-78
2023/05/01 03:08:39;;;;;;;8.98;6.75;;;;;;;;;;4969650;28;20057;-78
2023/05/01 03:11:06;;;;;;;6.45;5.68;;;;;;;;;;4987316;28;20065;-78
2023/05/01 03:13:32;;;;;;;7.93;6.40;;;;;;;;;;4972926;28;20042;-78
2023/05/01 03:15:58;;;;;;;9.23;6.45;;;;;;;;;;4970787;28;20051;-78
2023/05/01 03:18:25;;;;;;;10.45;6.82;;;;;;;;;;4988572;28;20045;-80
2023/05/01 03:20:55;;;;;;;12.57;6.63;;;;;;;;;;4983233;28;20068;-84
2023/05/01 03:23:22;;;;;;;8.93;6.35;;;;;;;;;;4981806;28;20050;-78
2023/05/01 03:25:48;;;;;;;10.45;6.25;;;;;;;;;;4971616;28;20045;-78
2023/05/01 03:28:15;;;;;;;8.10;6.43;;;;;;;;;;4970816;28;20046;-78
2023/05/01 03:30:41;;;;;;;10.75;6.30;;;;;;;;;;4975111;28;20053;-78
2023/05/01 03:33:07;;;;;;;9.60;6.07;;;;;;;;;;4970283;28;20508;-78
2023/05/01 03:35:33;;;;;;;10.98;6.75;;;;;;;;;;4986599;28;20077;-78
2023/05/01 03:38:00;;;;;;;9.05;6.40;;;;;;;;;;4987172;28;20057;-78
2023/05/01 03:40:26;;;;;;;9.35;6.65;;;;;;;;;;4988573;28;20181;-78
2023/05/01 03:42:52;;;;;;;7.28;5.88;;;;;;;;;;4989831;28;20104;-78
2023/05/01 03:45:18;;;;;;;9.70;6.60;;;;;;;;;;4983353;28;20914;-78
2023/05/01 03:47:43;;;;;;;10.55;6.43;;;;;;;;;;4968596;28;20074;-78
2023/05/01 03:50:10;;;;;;;8.30;6.70;;;;;;;;;;4968462;28;20052;-78
2023/05/01 03:52:36;;;;;;;11.27;6.40;;;;;;;;;;4984045;28;20035;-78
2023/05/01 03:55:02;;;;;;;7.82;6.45;;;;;;;;;;4969326;28;20053;-78
2023/05/01 03:57:28;;;;;;;6.70;5.90;;;;;;;;;;4981464;28;20068;-78
2023/05/01 03:59:54;;;;;;;7.40;5.80;;;;;;;;;;4985495;28;20398;-78
2023/05/01 04:02:20;;;;;;;8.02;6.25;;;;;;;;;;4983978;28;20101;-78
2023/05/01 04:04:46;;;;;;;8.32;6.35;;;;;;;;;;4990550;28;20038;-78
2023/05/01 04:07:13;;;;;;;10.05;6.80;;;;;;;;;;4981863;28;20034;-78
2023/05/01 04:09:39;;;;;;;8.90;6.47;;;;;;;;;;4982834;28;20498;-78
2023/05/01 04:12:05;;;;;;;9.32;5.72;;;;;;;;;;4983816;28;20046;-78
2023/05/01 04:14:31;;;;;;;8.20;6.15;;;;;;;;;;4984582;28;20034;-78
2023/05/01 04:16:58;;;;;;;7.35;6.20;;;;;;;;;;4981627;28;20057;-78
2023/05/01 04:19:24;;;;;;;9.70;6.70;;;;;;;;;;4985325;28;20401;-78
2023/05/01 04:21:50;;;;;;;8.20;6.40;;;;;;;;;;4984333;28;20046;-78
2023/05/01 04:24:16;;;;;;;9.40;6.03;;;;;;;;;;4981728;28;20045;-78
2023/05/01 04:26:42;;;;;;;9.75;6.22;;;;;;;;;;4987317;28;20403;-78
2023/05/01 04:29:08;;;;;;;7.80;6.32;;;;;;;;;;4988779;28;20430;-78
2023/05/01 04:31:34;;;;;;;8.13;6.60;;;;;;;;;;4985582;28;20047;-78
2023/05/01 04:34:01;;;;;;;10.10;6.72;;;;;;;;;;4987899;28;20042;-78
2023/05/01 04:36:28;;;;;;;9.00;6.57;;;;;;;;;;4985478;28;20050;-78
2023/05/01 04:38:54;;;;;;;9.77;6.47;;;;;;;;;;4988019;28;20057;-78
2023/05/01 04:41:20;;;;;;;8.38;6.22;;;;;;;;;;4985796;28;20103;-78
2023/05/01 04:43:46;;;;;;;8.45;6.15;;;;;;;;;;4989513;28;20418;-78
2023/05/01 04:46:13;;;;;;;9.65;6.22;;;;;;;;;;4987327;28;20035;-78
2023/05/01 04:48:39;;;;;;;10.18;6.72;;;;;;;;;;4981734;28;20062;-78
2023/05/01 04:51:05;;;;;;;10.07;6.40;;;;;;;;;;4982231;28;20054;-78
2023/05/01 04:53:31;;;;;;;10.23;6.75;;;;;;;;;;4982368;28;20042;-77
2023/05/01 04:55:57;;;;;;;8.77;5.80;;;;;;;;;;4987529;28;20061;-78
2023/05/01 04:58:23;;;;;;;8.90;6.47;;;;;;;;;;4984771;28;20053;-78
2023/05/01 05:00:49;;;;;;;8.27;6.32;;;;;;;;;;4985140;28;20160;-78
2023/05/01 05:03:17;;;;;;;11.95;6.53;;;;;;;;;;4984275;28;20485;-78
2023/05/01 05:05:44;;;;;;;9.95;6.07;;;;;;;;;;5001745;28;20124;-78
2023/05/01 05:08:10;;;;;;;9.15;6.60;;;;;;;;;;4983793;28;20074;-77
2023/05/01 05:10:36;;;;;;;9.95;6.95;;;;;;;;;;4983749;28;20031;-78
2023/05/01 05:13:02;;;;;;;9.07;6.35;;;;;;;;;;4985114;28;20053;-77
2023/05/01 05:15:28;;;;;;;9.68;6.57;;;;;;;;;;4983967;28;20045;-77
2023/05/01 05:17:55;;;;;;;10.02;6.57;;;;;;;;;;4999335;28;20580;-77
2023/05/01 05:20:21;;;;;;;9.77;6.65;;;;;;;;;;4981624;28;20803;-78
2023/05/01 05:22:47;;;;;;;11.80;6.70;;;;;;;;;;4990195;28;20041;-77
2023/05/01 05:25:13;;;;;;;10.45;6.78;;;;;;;;;;4988158;28;20049;-78
2023/05/01 05:27:39;;;;;;;8.85;6.10;;;;;;;;;;4986011;28;20592;-77
2023/05/01 05:30:05;;;;;;;9.50;6.55;;;;;;;;;;5002353;28;20069;-77
2023/05/01 05:32:31;;;;;;;14.50;7.28;;;;;;;;;;5004432;28;20056;-78
2023/05/01 05:34:57;;;;;;;9.00;6.07;;;;;;;;;;4986215;28;20041;-77
2023/05/01 05:37:24;;;;;;;9.32;6.70;;;;;;;;;;5007326;28;20100;-75
2023/05/01 05:39:51;;;;;;;9.73;6.35;;;;;;;;;;4989141;28;20042;-77
2023/05/01 05:42:17;;;;;;;11.07;7.35;;;;;;;;;;5005165;28;20339;-78
2023/05/01 05:44:43;;;;;;;9.82;6.53;;;;;;;;;;5008273;28;20081;-78
2023/05/01 05:47:09;;;;;;;12.38;6.97;;;;;;;;;;4985834;28;20126;-77
2023/05/01 05:49:35;;;;;;;9.20;6.70;;;;;;;;;;4986657;28;20034;-77
2023/05/01 05:52:01;;;;;;;10.30;7.18;;;;;;;;;;5003909;28;20042;-78
2023/05/01 05:54:27;;;;;;;9.75;6.70;;;;;;;;;;4986693;28;20038;-78
2023/05/01 05:56:53;;;;;;;17.75;7.88;;;;;;;;;;4983866;28;20145;-78
2023/05/01 05:59:19;;;;;;;19.90;8.90;;;;;;;;;;4986975;28;20196;-78
2023/05/01 06:01:46;;;;;;;17.55;7.93;;;;;;;;;;4983249;28;20413;-78
2023/05/01 06:04:13;;;;;;;41.67;14.13;;;;;;;;;;4985480;28;20046;-77
2023/05/01 06:06:39;;;;;;;17.08;7.55;;;;;;;;;;4984504;28;20401;-77
2023/05/01 06:09:07;;;;;;;11.88;6.35;;;;;;;;;;4982107;28;20038;-78
2023/05/01 06:11:33;;;;;;;10.25;6.50;;;;;;;;;;4986054;28;20521;-78
2023/05/01 06:14:01;;;;;;;9.05;6.47;;;;;;;;;;4985295;28;20042;-78
2023/05/01 06:16:27;;;;;;;9.85;6.15;;;;;;;;;;4981097;28;20054;-77
2023/05/01 06:18:53;;;;;;;9.95;6.38;;;;;;;;;;4983493;28;20054;-77
2023/05/01 06:21:20;;;;;;;9.35;6.10;;;;;;;;;;4985221;28;20057;-78
2023/05/01 06:23:46;;;;;;;8.65;6.20;;;;;;;;;;4979869;28;20053;-77
2023/05/01 06:26:12;;;;;;;9.13;6.43;;;;;;;;;;4983856;28;20089;-77
2023/05/01 06:28:38;;;;;;;10.10;6.85;;;;;;;;;;4985953;28;22264;-78
2023/05/01 06:31:04;;;;;;;7.25;5.90;;;;;;;;;;5004376;28;20052;-78
2023/05/01 06:33:30;;;;;;;11.10;6.65;;;;;;;;;;4982753;28;20513;-78
2023/05/01 06:35:58;;;;;;;8.00;5.95;;;;;;;;;;4991543;28;20052;-77
2023/05/01 06:38:25;;;;;;;11.20;6.60;;;;;;;;;;4982993;28;20054;-76
2023/05/01 06:40:51;;;;;;;12.40;6.43;;;;;;;;;;4990396;28;20084;-76
2023/05/01 06:43:17;;;;;;;9.80;6.53;;;;;;;;;;4985746;28;20394;-76
2023/05/01 06:45:43;;;;;;;12.73;6.00;;;;;;;;;;4987469;28;20050;-76
2023/05/01 06:48:09;;;;;;;15.00;7.22;;;;;;;;;;4987059;28;20482;-76
2023/05/01 06:50:35;;;;;;;10.13;6.10;;;;;;;;;;4986489;28;20034;-76
2023/05/01 06:53:01;;;;;;;23.55;8.90;;;;;;;;;;4999036;28;20450;-76
2023/05/01 06:55:30;;;;;;;17.52;7.68;;;;;;;;;;4986728;28;20043;-76
2023/05/01 06:57:56;;;;;;;10.35;6.50;;;;;;;;;;5003071;28;20069;-76
2023/05/01 07:00:22;;;;;;;7.93;6.20;;;;;;;;;;5010632;28;20096;-76
2023/05/01 07:02:48;;;;;;;9.27;6.18;;;;;;;;;;4993467;28;20088;-76
2023/05/01 07:05:15;;;;;;;9.13;6.13;;;;;;;;;;5008197;28;20041;-77
2023/05/01 07:07:41;;;;;;;13.95;6.65;;;;;;;;;;5011479;28;20061;-77
2023/05/01 07:10:07;;;;;;;10.27;6.95;;;;;;;;;;4984312;28;20128;-76
2023/05/01 07:12:33;;;;;;;8.57;5.82;;;;;;;;;;4974121;28;20042;-76
2023/05/01 07:14:59;;;;;;;9.10;6.68;;;;;;;;;;4992129;28;20556;-76
2023/05/01 07:17:25;;;;;;;10.05;6.10;;;;;;;;;;4991336;28;20084;-77
2023/05/01 07:19:52;;;;;;;10.82;6.60;;;;;;;;;;5003840;28;20078;-77
2023/05/01 07:22:18;;;;;;;8.43;6.05;;;;;;;;;;5007439;28;20054;-77
2023/05/01 07:24:44;;;;;;;8.63;6.85;;;;;;;;;;4987291;28;20096;-77
2023/05/01 07:27:10;;;;;;;8.90;6.18;;;;;;;;;;4990216;28;20046;-77
2023/05/01 07:29:38;;;;;;;9.75;6.53;;;;;;;;;;4983791;28;20132;-76
2023/05/01 07:32:05;;;;;;;8.70;6.50;;;;;;;;;;5005034;28;20049;-77
2023/05/01 07:34:31;;;;;;;8.27;6.40;;;;;;;;;;4986007;28;20069;-76
2023/05/01 07:36:58;;;;;;;9.57;7.05;;;;;;;;;;4986336;28;20104;-77
2023/05/01 07:39:24;;;;;;;12.15;6.38;;;;;;;;;;4987992;28;20042;-77
2023/05/01 07:41:50;;;;;;;11.45;6.43;;;;;;;;;;5002110;28;20057;-76
2023/05/01 07:44:16;;;;;;;9.98;6.80;;;;;;;;;;4996010;28;20042;-76
2023/05/01 07:46:42;;;;;;;11.38;6.50;;;;;;;;;;4991364;28;20412;-72
2023/05/01 07:49:08;;;;;;;9.10;6.72;;;;;;;;;;4990951;28;20064;-75
2023/05/01 07:51:34;;;;;;;8.25;5.75;;;;;;;;;;5005873;28;20046;-76
2023/05/01 07:54:03;;;;;;;9.23;6.47;;;;;;;;;;4993561;28;20498;-76
2023/05/01 07:56:32;;;;;;;8.63;5.97;;;;;;;;;;4982935;28;20426;-77
2023/05/01 07:58:58;;;;;;;9.63;6.35;;;;;;;;;;4990476;28;20054;-77
2023/05/01 08:01:24;;;;;;;9.13;5.75;;;;;;;;;;5005060;28;20056;-77
2023/05/01 08:03:50;;;;;;;8.18;5.95;;;;;;;;;;4990314;28;20046;-77
2023/05/01 08:06:16;;;;;;;11.15;6.60;;;;;;;;;;4990405;28;20111;-77
2023/05/01 08:08:42;;;;;;;8.95;6.05;;;;;;;;;;4988445;28;20128;-77
2023/05/01 08:11:08;;;;;;;9.27;5.85;;;;;;;;;;5007237;28;20121;-73
2023/05/01 08:13:35;;;;;;;8.70;5.40;;;;;;;;;;4977072;28;20065;-76
2023/05/01 08:16:02;;;;;;;8.02;5.72;;;;;;;;;;4996951;28;20125;-77
2023/05/01 08:18:28;;;;;;;9.40;5.82;;;;;;;;;;4999275;28;20085;-76
2023/05/01 08:20:54;;;;;;;7.90;6.00;;;;;;;;;;4984044;28;20072;-76
2023/05/01 08:23:20;;;;;;;7.18;5.40;;;;;;;;;;4990162;28;20445;-77
2023/05/01 08:25:46;;;;;;;9.27;5.82;;;;;;;;;;5007004;28;20038;-76
2023/05/01 08:28:13;;;;;;;9.23;6.32;;;;;;;;;;5005336;28;20574;-76
2023/05/01 08:30:39;;;;;;;8.88;5.53;;;;;;;;;;5006195;28;20050;-77
2023/05/01 08:33:05;;;;;;;7.88;5.35;;;;;;;;;;5006664;28;20149;-78
2023/05/01 08:35:31;;;;;;;9.50;5.82;;;;;;;;;;5009324;28;20045;-78
2023/05/01 08:37:57;;;;;;;7.95;4.97;;;;;;;;;;5000310;28;20046;-75
2023/05/01 08:40:25;;;;;;;8.43;5.38;;;;;;;;;;5009848;28;20103;-78
2023/05/01 08:42:51;;;;;;;8.40;5.22;;;;;;;;;;5008061;28;20046;-78
2023/05/01 08:45:20;;;;;;;8.35;5.28;;;;;;;;;;4988528;28;20125;-78
2023/05/01 08:47:46;;;;;;;9.10;5.72;;;;;;;;;;4991390;28;20050;-78
2023/05/01 08:50:13;;;;;;;9.07;5.88;;;;;;;;;;4987183;28;20413;-78
2023/05/01 08:52:43;;;;;;;9.68;6.00;;;;;;;;;;5004037;28;20045;-79
2023/05/01 08:55:11;;;;;;;9.48;5.85;;;;;;;;;;5006264;28;20056;-78
2023/05/01 08:57:38;;;;;;;8.15;5.25;;;;;;;;;;5007077;28;20061;-78
2023/05/01 09:00:04;;;;;;;6.43;4.80;;;;;;;;;;5004958;28;20055;-79
2023/05/01 09:02:34;;;;;;;10.02;5.25;;;;;;;;;;5006813;28;20041;-78
2023/05/01 09:05:02;;;;;;;8.25;4.35;;;;;;;;;;5006157;28;20394;-78
2023/05/01 09:07:29;;;;;;;8.75;5.35;;;;;;;;;;4990470;28;20116;-78
2023/05/01 09:09:55;;;;;;;11.07;5.90;;;;;;;;;;5006057;28;20406;-78
2023/05/01 09:12:22;;;;;;;10.55;5.25;;;;;;;;;;5005758;28;20049;-78
2023/05/01 09:14:50;;;;;;;10.77;5.28;;;;;;;;;;4994084;28;20393;-78
2023/05/01 09:17:16;;;;;;;9.18;4.75;;;;;;;;;;4989137;28;20050;-78
2023/05/01 09:19:42;;;;;;;5.75;4.38;;;;;;;;;;4991128;28;20073;-78
2023/05/01 09:22:09;;;;;;;9.50;5.20;;;;;;;;;;5004006;28;20521;-80
2023/05/01 09:24:46;;;;;;;7.07;4.35;;;;;;;;;;5002669;28;20038;-80
2023/05/01 09:27:12;;;;;;;8.18;4.85;;;;;;;;;;4986628;28;20050;-80
2023/05/01 09:29:42;;;;;;;7.03;4.72;;;;;;;;;;4989253;28;20038;-80
2023/05/01 09:32:23;;;;;;;9.73;5.55;;;;;;;;;;4984090;28;20490;-81
2023/05/01 09:34:50;;;;;;;7.82;5.00;;;;;;;;;;4992932;28;20041;-81
2023/05/01 09:37:32;;;;;;;8.27;4.18;;;;;;;;;;4980646;28;20406;-81
2023/05/01 09:40:06;;;;;;;6.43;4.78;;;;;;;;;;5006576;28;20100;-79
2023/05/01 09:42:33;;;;;;;9.75;6.15;;;;;;;;;;5005090;28;20049;-81
2023/05/01 09:45:00;;;;;;;11.10;6.15;;;;;;;;;;4990415;28;20045;-81
2023/05/01 09:47:27;;;;;;;9.23;6.30;;;;;;;;;;5003677;28;20046;-80
2023/05/01 09:49:55;;;;;;;9.57;5.78;;;;;;;;;;5007415;28;20050;-80
2023/05/01 09:52:21;;;;;;;9.18;6.10;;;;;;;;;;4991336;28;20100;-80
2023/05/01 09:54:47;;;;;;;8.00;5.90;;;;;;;;;;4981049;28;20069;-80
2023/05/01 09:57:13;;;;;;;8.45;5.53;;;;;;;;;;4998423;28;20062;-79
2023/05/01 09:59:39;;;;;;;8.75;5.15;;;;;;;;;;4987782;28;20540;-80
2023/05/01 10:02:06;;;;;;;10.70;5.85;;;;;;;;;;4987502;28;20448;-80
2023/05/01 10:04:33;;;;;;;7.78;5.15;;;;;;;;;;5005367;28;20042;-80
2023/05/01 10:07:19;;;;;;;6.90;5.00;;;;;;;;;;5004364;28;20177;-80
2023/05/01 10:09:45;;;;;;;9.98;4.68;;;;;;;;;;4988424;28;20077;-80
2023/05/01 10:12:22;;;;;;;7.97;5.40;;;;;;;;;;5008362;28;20052;-80
2023/05/01 10:14:54;;;;;;;7.47;5.43;;;;;;;;;;5015888;28;20081;-80
2023/05/01 10:17:21;;;;;;;9.93;5.40;;;;;;;;;;4996744;28;20049;-80
2023/05/01 10:19:50;;;;;;;7.82;5.40;;;;;;;;;;4989015;28;20033;-80
2023/05/01 10:22:16;;;;;;;9.70;5.53;;;;;;;;;;5003256;28;20046;-80
2023/05/01 10:24:45;;;;;;;6.97;5.05;;;;;;;;;;4994197;28;20501;-81
2023/05/01 10:27:12;;;;;;;9.02;5.32;;;;;;;;;;4994905;28;20052;-81
2023/05/01 10:29:39;;;;;;;7.18;4.78;;;;;;;;;;4988589;28;20045;-81
2023/05/01 10:32:07;;;;;;;8.20;4.55;;;;;;;;;;5009438;28;20168;-81
2023/05/01 10:34:35;;;;;;;5.95;4.50;;;;;;;;;;5006367;28;20046;-80
2023/05/01 10:37:06;;;;;;;9.18;5.25;;;;;;;;;;5009003;28;20120;-79
2023/05/01 10:39:33;;;;;;;7.85;4.60;;;;;;;;;;5005895;28;20049;-81
2023/05/01 10:41:58;;;;;;;9.27;5.38;;;;;;;;;;4986995;28;20054;-81
2023/05/01 10:44:26;;;;;;;9.73;5.82;;;;;;;;;;4984390;28;20045;-81
2023/05/01 10:46:52;;;;;;;8.25;5.65;;;;;;;;;;4998552;28;20041;-81
2023/05/01 10:49:18;;;;;;;8.82;6.63;;;;;;;;;;5009866;28;20054;-81
2023/05/01 10:52:02;;;;;;;8.50;6.25;;;;;;;;;;5007774;28;20481;-81
2023/05/01 10:54:32;;;;;;;11.15;7.53;;;;;;;;;;4986300;28;20066;-81
2023/05/01 10:57:00;;;;;;;9.68;6.50;;;;;;;;;;4983667;28;20477;-81
2023/05/01 10:59:26;;;;;;;9.77;6.75;;;;;;;;;;4992894;28;20058;-81
2023/05/01 11:01:52;;;;;;;10.88;7.95;;;;;;;;;;4992513;28;20049;-81
2023/05/01 11:04:21;;;;;;;11.98;7.82;;;;;;;;;;4987027;28;20112;-78
2023/05/01 11:07:09;;;;;;;10.52;7.60;;;;;;;;;;5009293;28;20477;-77
2023/05/01 11:09:42;;;;;;;11.57;7.57;;;;;;;;;;4988692;28;20462;-78
2023/05/01 11:12:13;;;;;;;11.68;8.05;;;;;;;;;;4979557;28;20061;-81
2023/05/01 11:14:56;;;;;;;10.60;8.07;;;;;;;;;;4994883;28;20123;-82
2023/05/01 11:17:40;;;;;;;12.65;9.00;;;;;;;;;;4997197;28;20054;-82
2023/05/01 11:20:09;;;;;;;11.35;7.38;;;;;;;;;;5002076;28;20049;-81
2023/05/01 11:22:35;;;;;;;14.65;8.18;;;;;;;;;;5010658;28;20042;-81
2023/05/01 11:25:03;;;;;;;11.95;8.35;;;;;;;;;;5009918;28;20096;-81
2023/05/01 11:27:29;;;;;;;11.98;8.38;;;;;;;;;;4995257;28;20116;-81
2023/05/01 11:29:58;;;;;;;11.18;8.48;;;;;;;;;;4989680;28;20042;-81
2023/05/01 11:32:26;;;;;;;12.13;8.52;;;;;;;;;;5006913;28;20042;-82
2023/05/01 11:34:52;;;;;;;11.98;8.82;;;;;;;;;;5011035;28;20506;-81
2023/05/01 11:37:19;;;;;;;11.93;8.15;;;;;;;;;;4994835;28;20062;-81
2023/05/01 11:39:47;;;;;;;10.95;8.25;;;;;;;;;;5005112;28;20046;-81
2023/05/01 11:42:13;;;;;;;11.82;8.55;;;;;;;;;;5011888;28;20127;-81
2023/05/01 11:44:39;;;;;;;12.38;8.45;;;;;;;;;;4995152;28;20046;-82
2023/05/01 11:47:06;;;;;;;10.85;8.43;;;;;;;;;;5009928;28;20448;-82
2023/05/01 11:49:32;;;;;;;12.77;8.90;;;;;;;;;;5011053;28;20056;-81
2023/05/01 11:51:58;;;;;;;11.15;7.97;;;;;;;;;;4993214;28;20053;-81
2023/05/01 11:54:24;;;;;;;12.43;8.40;;;;;;;;;;4994943;28;20417;-81
2023/05/01 11:56:58;;;;;;;14.10;8.52;;;;;;;;;;5010953;28;20046;-81
2023/05/01 11:59:25;;;;;;;11.52;8.70;;;;;;;;;;4993698;28;20050;-82
2023/05/01 12:01:52;;;;;;;12.82;8.82;;;;;;;;;;4994019;28;20486;-81
2023/05/01 12:04:27;;;;;;;13.82;9.05;;;;;;;;;;4991979;28;20069;-82
2023/05/01 12:06:53;;;;;;;12.82;9.05;;;;;;;;;;4993961;28;20143;-81
2023/05/01 12:09:23;;;;;;;13.50;9.10;;;;;;;;;;5006153;28;20321;-81
2023/05/01 12:11:50;;;;;;;13.93;9.13;;;;;;;;;;5006045;28;20049;-81
2023/05/01 12:14:17;;;;;;;13.85;9.75;;;;;;;;;;4994559;28;20136;-82
2023/05/01 12:16:43;;;;;;;11.73;9.48;;;;;;;;;;4991796;28;20050;-82
2023/05/01 12:19:12;;;;;;;15.07;10.27;;;;;;;;;;5010979;28;20038;-82
2023/05/01 12:21:38;;;;;;;16.10;9.95;;;;;;;;;;4991968;28;20050;-82
2023/05/01 12:24:08;;;;;;;13.55;10.10;;;;;;;;;;5008780;28;20054;-81
2023/05/01 12:26:34;;;;;;;16.98;10.20;;;;;;;;;;4988764;28;20042;-82
2023/05/01 12:29:02;;;;;;;12.70;9.60;;;;;;;;;;4985604;28;20137;-82
2023/05/01 12:31:29;;;;;;;14.30;10.57;;;;;;;;;;4993494;28;20089;-82
2023/05/01 12:34:05;;;;;;;12.63;10.00;;;;;;;;;;4989478;28;20041;-83
2023/05/01 12:36:32;;;;;;;17.40;10.40;;;;;;;;;;4985005;28;20049;-82
2023/05/01 12:38:59;;;;;;;12.88;9.98;;;;;;;;;;4991040;28;20081;-82
2023/05/01 12:41:33;;;;;;;13.48;10.77;;;;;;;;;;4995086;28;20544;-82
2023/05/01 12:43:59;;;;;;;15.00;11.32;;;;;;;;;;4981779;28;20441;-82
2023/05/01 12:46:26;;;;;;;13.60;10.52;;;;;;;;;;4983669;28;20051;-82
2023/05/01 12:48:53;;;;;;;15.45;10.65;;;;;;;;;;4988106;28;20045;-82
2023/05/01 12:51:19;;;;;;;14.20;10.95;;;;;;;;;;5009165;28;20045;-81
2023/05/01 12:53:46;;;;;;;14.13;10.23;;;;;;;;;;4986356;28;20097;-83
2023/05/01 12:56:23;;;;;;;13.18;10.18;;;;;;;;;;5003794;28;20058;-82
2023/05/01 12:58:49;;;;;;;14.80;10.00;;;;;;;;;;4973240;28;20437;-81
2023/05/01 13:01:24;;;;;;;12.73;9.77;;;;;;;;;;4977242;28;20122;-80
2023/05/01 13:03:50;;;;;;;18.30;10.45;;;;;;;;;;4976611;28;20051;-81
2023/05/01 13:06:16;;;;;;;14.88;10.48;;;;;;;;;;4966759;28;20093;-81
2023/05/01 13:08:43;;;;;;;13.82;10.52;;;;;;;;;;4981167;28;20050;-82
2023/05/01 13:11:16;;;;;;;13.02;10.38;;;;;;;;;;4977104;28;20046;-82
2023/05/01 13:13:45;;;;;;;13.98;10.15;;;;;;;;;;4989644;28;20049;-81
2023/05/01 13:16:12;;;;;;;14.63;10.48;;;;;;;;;;4973441;28;20042;-81
2023/05/01 13:18:49;;;;;;;12.25;10.13;;;;;;;;;;4967915;28;20524;-82
2023/05/01 13:21:16;;;;;;;14.95;11.32;;;;;;;;;;4975473;28;20045;-82
2023/05/01 13:23:43;;;;;;;13.35;11.20;;;;;;;;;;4964387;28;20050;-81
2023/05/01 13:26:10;;;;;;;13.45;10.93;;;;;;;;;;4970336;28;20053;-81
2023/05/01 13:28:41;;;;;;;13.82;10.45;;;;;;;;;;4981121;28;20042;-81
2023/05/01 13:31:14;;;;;;;12.93;10.88;;;;;;;;;;4971979;28;20042;-81
2023/05/01 13:33:43;;;;;;;14.98;11.23;;;;;;;;;;4977070;28;20051;-81
2023/05/01 13:36:10;;;;;;;12.88;10.30;;;;;;;;;;4984802;28;20038;-80
2023/05/01 13:38:41;;;;;;;14.48;9.63;;;;;;;;;;4976407;28;20073;-81
2023/05/01 13:41:07;;;;;;;14.85;10.13;;;;;;;;;;4986447;28;20165;-80
2023/05/01 13:43:34;;;;;;;13.55;10.27;;;;;;;;;;4973233;28;20502;-82
2023/05/01 13:46:00;;;;;;;16.30;11.18;;;;;;;;;;4964013;28;20047;-81
2023/05/01 13:48:26;;;;;;;12.48;9.93;;;;;;;;;;4985723;28;20061;-81
2023/05/01 13:50:52;;;;;;;14.90;10.23;;;;;;;;;;4966344;28;20050;-81
2023/05/01 13:53:19;;;;;;;15.20;10.98;;;;;;;;;;4966761;28;20145;-80
2023/05/01 13:55:45;;;;;;;13.05;10.23;;;;;;;;;;4969360;28;20034;-80
2023/05/01 13:58:11;;;;;;;16.73;10.98;;;;;;;;;;4989705;28;20414;-81
2023/05/01 14:00:38;;;;;;;14.38;11.15;;;;;;;;;;5003274;28;20053;-81
2023/05/01 14:03:04;;;;;;;16.45;12.60;;;;;;;;;;4985616;28;20037;-81
2023/05/01 14:05:30;;;;;;;14.80;12.27;;;;;;;;;;4987051;28;20405;-82
2023/05/01 14:07:57;;;;;;;17.83;12.80;;;;;;;;;;5004223;28;20565;-81
2023/05/01 14:10:26;;;;;;;15.73;12.18;;;;;;;;;;4986632;28;20765;-81
2023/05/01 14:12:54;;;;;;;17.25;13.25;;;;;;;;;;5005662;28;20088;-81
2023/05/01 14:15:23;;;;;;;16.13;13.52;;;;;;;;;;4987209;28;20042;-81
2023/05/01 14:17:49;;;;;;;17.73;12.85;;;;;;;;;;4985836;28;20411;-81
2023/05/01 14:20:15;;;;;;;21.33;13.25;;;;;;;;;;4999765;28;20181;-81
2023/05/01 14:22:42;;;;;;;14.55;11.68;;;;;;;;;;5012539;28;20559;-81
2023/05/01 14:25:18;;;;;;;18.70;13.52;;;;;;;;;;5010471;28;20501;-81
2023/05/01 14:27:44;;;;;;;20.63;14.68;;;;;;;;;;5010273;28;20052;-81
2023/05/01 14:30:13;;;;;;;20.05;14.10;;;;;;;;;;5010024;28;20037;-80
2023/05/01 14:32:40;;;;;;;19.83;15.68;;;;;;;;;;4994601;28;20613;-80
2023/05/01 14:35:08;;;;;;;18.67;15.52;;;;;;;;;;5011434;28;20046;-81
2023/05/01 14:37:34;;;;;;;22.08;15.98;;;;;;;;;;4992429;28;20138;-80